createdAt,value
2023-01-07T00:01:46.356Z,10.98
2023-01-07T00:04:15.500Z,7.22
2023-01-07T00:06:44.219Z,9.93
2023-01-07T00:09:16.348Z,8.93
2023-01-07T00:11:43.804Z,5.88
2023-01-07T00:14:12.242Z,6.75
2023-01-07T00:16:39.918Z,5.43
2023-01-07T00:19:08.406Z,5.82
2023-01-07T00:21:35.706Z,9.20
2023-01-07T00:24:05.146Z,4.90
2023-01-07T00:26:34.304Z,8.05
2023-01-07T00:29:01.370Z,5.45
2023-01-07T00:31:31.305Z,3.63
2023-01-07T00:33:58.173Z,6.93
2023-01-07T00:36:28.178Z,4.05
2023-01-07T00:38:57.178Z,5.78
2023-01-07T00:41:24.664Z,6.78
2023-01-07T00:43:52.164Z,5.97
2023-01-07T00:46:19.694Z,4.85
2023-01-07T00:48:46.921Z,8.60
2023-01-07T00:51:15.701Z,6.32
2023-01-07T00:53:43.635Z,9.90
2023-01-07T00:56:11.886Z,8.55
2023-01-07T00:58:38.707Z,5.22
2023-01-07T01:01:06.035Z,5.07
2023-01-07T01:03:34.000Z,5.82
2023-01-07T01:06:06.520Z,7.88
2023-01-07T01:08:33.436Z,5.88
2023-01-07T01:11:08.156Z,4.68
2023-01-07T01:13:35.847Z,6.60
2023-01-07T01:16:08.495Z,7.18
2023-01-07T01:18:35.781Z,6.07
2023-01-07T01:21:11.321Z,6.47
2023-01-07T01:23:38.894Z,8.30
2023-01-07T01:26:08.814Z,9.18
2023-01-07T01:28:36.365Z,9.18
2023-01-07T01:31:05.333Z,8.15
2023-01-07T01:33:32.568Z,6.95
2023-01-07T01:35:59.625Z,6.65
2023-01-07T01:38:26.448Z,8.38
2023-01-07T01:40:53.303Z,6.00
2023-01-07T01:43:34.442Z,8.38
2023-01-07T01:46:05.943Z,4.85
2023-01-07T01:48:36.457Z,6.10
2023-01-07T01:51:04.118Z,5.50
2023-01-07T01:53:35.788Z,8.95
2023-01-07T01:56:13.431Z,7.55
2023-01-07T01:58:48.142Z,7.13
2023-01-07T02:01:15.891Z,5.35
2023-01-07T02:03:43.760Z,7.78
2023-01-07T02:06:20.184Z,10.77
2023-01-07T02:08:47.175Z,11.68
2023-01-07T02:11:22.964Z,6.18
2023-01-07T02:13:56.962Z,10.63
2023-01-07T02:16:36.019Z,7.43
2023-01-07T02:19:21.482Z,8.20
2023-01-07T02:22:03.460Z,6.22
2023-01-07T02:24:58.318Z,11.68
2023-01-07T02:27:46.592Z,7.60
2023-01-07T02:30:19.895Z,9.00
2023-01-07T02:33:27.428Z,9.35
2023-01-07T02:35:56.933Z,6.25
2023-01-07T02:38:47.737Z,9.70
2023-01-07T02:41:44.841Z,8.38
2023-01-07T02:44:17.301Z,9.45
2023-01-07T02:46:54.548Z,10.05
2023-01-07T02:49:21.619Z,7.40
2023-01-07T02:51:48.813Z,5.97
2023-01-07T02:54:27.727Z,9.52
2023-01-07T02:57:15.795Z,7.82
2023-01-07T03:00:11.159Z,8.85
2023-01-07T03:02:40.907Z,12.23
2023-01-07T03:05:26.655Z,8.85
2023-01-07T03:08:31.156Z,10.38
2023-01-07T03:11:10.170Z,9.00
2023-01-07T03:13:38.615Z,9.43
2023-01-07T03:16:52.443Z,10.98
2023-01-07T03:19:32.762Z,11.80
2023-01-07T03:22:01.512Z,6.20
2023-01-07T03:24:30.595Z,10.05
2023-01-07T03:27:00.502Z,7.90
2023-01-07T03:29:28.547Z,7.00
2023-01-07T03:32:01.058Z,10.15
2023-01-07T03:34:29.162Z,8.75
2023-01-07T03:37:04.802Z,11.35
2023-01-07T03:39:34.795Z,7.80
2023-01-07T03:42:26.706Z,6.70
2023-01-07T03:44:54.221Z,7.63
2023-01-07T03:47:22.361Z,6.57
2023-01-07T03:49:50.128Z,5.43
2023-01-07T03:52:17.051Z,6.47
2023-01-07T03:54:43.922Z,7.22
2023-01-07T03:57:10.728Z,7.80
2023-01-07T03:59:37.577Z,5.57
2023-01-07T04:02:04.665Z,5.40
2023-01-07T04:04:32.599Z,6.60
2023-01-07T04:06:59.409Z,8.43
2023-01-07T04:09:26.373Z,5.88
2023-01-07T04:11:53.300Z,6.03
2023-01-07T04:14:20.196Z,8.30
2023-01-07T04:16:47.110Z,5.45
2023-01-07T04:19:14.143Z,5.57
2023-01-07T04:21:40.999Z,4.68
2023-01-07T04:24:08.505Z,5.32
2023-01-07T04:26:35.975Z,5.95
2023-01-07T04:29:03.012Z,3.70
2023-01-07T04:31:30.169Z,7.45
2023-01-07T04:33:57.086Z,5.07
2023-01-07T04:36:24.111Z,4.32
2023-01-07T04:38:51.237Z,5.63
2023-01-07T04:41:18.222Z,5.10
2023-01-07T04:43:45.194Z,4.03
2023-01-07T04:46:12.275Z,5.47
2023-01-07T04:48:39.164Z,3.42
2023-01-07T04:51:06.332Z,4.15
2023-01-07T04:53:33.465Z,3.90
2023-01-07T04:56:00.609Z,4.90
2023-01-07T04:58:27.804Z,4.47
2023-01-07T05:00:58.208Z,2.78
2023-01-07T05:03:25.809Z,4.15
2023-01-07T05:05:52.752Z,2.60
2023-01-07T05:08:19.661Z,4.53
2023-01-07T05:10:52.831Z,7.35
2023-01-07T05:13:21.711Z,3.17
2023-01-07T05:15:49.228Z,4.63
2023-01-07T05:18:16.759Z,3.55
2023-01-07T05:20:43.833Z,2.58
2023-01-07T05:23:10.828Z,3.78
2023-01-07T05:25:37.694Z,4.03
2023-01-07T05:28:07.621Z,5.15
2023-01-07T05:30:34.464Z,2.55
2023-01-07T05:33:01.531Z,2.88
2023-01-07T05:35:28.320Z,3.30
2023-01-07T05:37:55.120Z,2.22
2023-01-07T05:40:21.961Z,2.60
2023-01-07T05:42:48.835Z,3.42
2023-01-07T05:45:15.949Z,2.30
2023-01-07T05:47:43.265Z,1.83
2023-01-07T05:50:10.138Z,4.25
2023-01-07T05:52:36.896Z,2.03
2023-01-07T05:55:04.232Z,3.03
2023-01-07T05:57:31.022Z,2.38
2023-01-07T05:59:57.787Z,4.18
2023-01-07T06:02:24.737Z,1.90
2023-01-07T06:04:51.631Z,1.65
2023-01-07T06:07:18.596Z,5.10
2023-01-07T06:09:45.432Z,3.65
2023-01-07T06:12:12.249Z,2.58
2023-01-07T06:14:39.159Z,2.65
2023-01-07T06:17:06.012Z,1.98
2023-01-07T06:19:33.061Z,4.70
2023-01-07T06:22:00.075Z,5.85
2023-01-07T06:24:29.906Z,3.90
2023-01-07T06:26:56.754Z,3.58
2023-01-07T06:29:24.206Z,3.58
2023-01-07T06:31:51.816Z,2.97
2023-01-07T06:34:18.982Z,4.05
2023-01-07T06:36:45.972Z,2.90
2023-01-07T06:39:15.837Z,1.40
2023-01-07T06:41:42.851Z,1.75
2023-01-07T06:44:09.930Z,2.58
2023-01-07T06:46:37.172Z,3.83
2023-01-07T06:49:04.625Z,2.80
2023-01-07T06:51:31.911Z,1.67
2023-01-07T06:53:58.923Z,3.03
2023-01-07T06:56:25.822Z,1.75
2023-01-07T06:58:52.983Z,1.90
2023-01-07T07:01:20.444Z,1.60
2023-01-07T07:03:47.292Z,2.30
2023-01-07T07:06:14.336Z,2.00
2023-01-07T07:08:41.248Z,3.33
2023-01-07T07:11:08.094Z,2.85
2023-01-07T07:13:34.965Z,1.50
2023-01-07T07:16:02.168Z,1.42
2023-01-07T07:18:29.069Z,6.72
2023-01-07T07:20:56.013Z,1.35
2023-01-07T07:23:23.066Z,3.92
2023-01-07T07:25:50.087Z,1.75
2023-01-07T07:28:17.365Z,3.22
2023-01-07T07:30:51.109Z,2.50
2023-01-07T07:33:19.527Z,3.15
2023-01-07T07:35:46.998Z,2.90
2023-01-07T07:38:13.835Z,2.63
2023-01-07T07:40:40.774Z,2.53
2023-01-07T07:43:10.577Z,1.60
2023-01-07T07:45:40.778Z,3.47
2023-01-07T07:48:08.736Z,2.67
2023-01-07T07:50:36.157Z,2.08
2023-01-07T07:53:03.141Z,4.60
2023-01-07T07:55:29.990Z,2.58
2023-01-07T07:57:58.536Z,2.40
2023-01-07T08:00:25.951Z,2.83
2023-01-07T08:02:53.097Z,2.10
2023-01-07T08:05:20.289Z,4.13
2023-01-07T08:07:47.468Z,2.20
2023-01-07T08:10:14.299Z,2.05
2023-01-07T08:12:41.984Z,2.00
2023-01-07T08:15:09.815Z,2.72
2023-01-07T08:17:36.750Z,3.58
2023-01-07T08:20:05.063Z,3.38
2023-01-07T08:22:34.711Z,4.35
2023-01-07T08:25:02.133Z,1.58
2023-01-07T08:27:30.112Z,3.67
2023-01-07T08:29:57.357Z,1.88
2023-01-07T08:32:24.574Z,1.75
2023-01-07T08:34:54.541Z,2.80
2023-01-07T08:37:21.488Z,1.35
2023-01-07T08:39:48.498Z,2.55
2023-01-07T08:42:15.581Z,1.90
2023-01-07T08:44:42.592Z,1.75
2023-01-07T08:47:12.339Z,2.30
2023-01-07T08:49:39.323Z,3.20
2023-01-07T08:52:08.475Z,2.63
2023-01-07T08:54:38.361Z,1.40
2023-01-07T08:57:05.397Z,1.95
2023-01-07T08:59:32.500Z,3.65
2023-01-07T09:02:02.054Z,2.38
2023-01-07T09:04:30.023Z,6.90
2023-01-07T09:06:57.260Z,1.75
2023-01-07T09:09:24.289Z,4.13
2023-01-07T09:11:52.677Z,4.10
2023-01-07T09:14:19.620Z,1.75
2023-01-07T09:16:46.624Z,3.00
2023-01-07T09:19:13.428Z,3.40
2023-01-07T09:21:40.384Z,1.80
2023-01-07T09:24:07.480Z,1.60
2023-01-07T09:26:34.409Z,1.58
2023-01-07T09:29:01.905Z,2.20
2023-01-07T09:31:28.848Z,1.80
2023-01-07T09:33:55.851Z,1.45
2023-01-07T09:36:27.351Z,1.40
2023-01-07T09:38:54.489Z,2.38
2023-01-07T09:42:02.069Z,3.05
2023-01-07T09:44:31.914Z,4.78
2023-01-07T09:46:59.608Z,2.05
2023-01-07T09:49:32.459Z,3.25
2023-01-07T09:52:07.354Z,3.28
2023-01-07T09:54:36.886Z,2.50
2023-01-07T09:57:05.101Z,4.78
2023-01-07T09:59:32.937Z,3.47
2023-01-07T10:02:21.110Z,2.38
2023-01-07T10:05:18.630Z,2.67
2023-01-07T10:07:55.099Z,3.65
2023-01-07T10:11:00.659Z,2.05
2023-01-07T10:13:27.495Z,2.33
2023-01-07T10:16:16.641Z,5.00
2023-01-07T10:18:47.525Z,2.80
2023-01-07T10:21:16.682Z,4.38
2023-01-07T10:23:48.953Z,2.28
2023-01-07T10:26:41.397Z,4.70
2023-01-07T10:29:46.146Z,3.72
2023-01-07T10:32:22.037Z,2.05
2023-01-07T10:34:54.080Z,5.88
2023-01-07T10:37:26.115Z,2.53
2023-01-07T10:40:23.421Z,3.47
2023-01-07T10:43:02.325Z,3.78
2023-01-07T10:45:44.719Z,3.47
2023-01-07T10:48:32.850Z,1.83
2023-01-07T10:51:32.290Z,1.85
2023-01-07T10:54:17.064Z,4.43
2023-01-07T10:56:51.039Z,2.70
2023-01-07T10:59:20.970Z,3.85
2023-01-07T11:01:57.491Z,4.18
2023-01-07T11:04:24.773Z,5.10
2023-01-07T11:07:04.981Z,3.78
2023-01-07T11:09:36.237Z,2.20
2023-01-07T11:12:27.909Z,2.10
2023-01-07T11:14:57.135Z,2.72
2023-01-07T11:17:37.706Z,2.10
2023-01-07T11:20:05.800Z,3.80
2023-01-07T11:22:37.620Z,2.20
2023-01-07T11:25:34.002Z,2.53
2023-01-07T11:28:03.528Z,5.22
2023-01-07T11:30:33.772Z,3.65
2023-01-07T11:33:04.565Z,1.98
2023-01-07T11:35:31.864Z,1.80
2023-01-07T11:37:59.892Z,3.13
2023-01-07T11:40:31.963Z,1.83
2023-01-07T11:43:20.505Z,2.42
2023-01-07T11:46:21.407Z,1.95
2023-01-07T11:48:57.485Z,2.30
2023-01-07T11:51:25.059Z,2.97
2023-01-07T11:54:00.104Z,1.92
2023-01-07T11:56:33.751Z,2.58
2023-01-07T11:59:15.512Z,4.43
2023-01-07T12:01:43.928Z,5.15
2023-01-07T12:04:19.893Z,3.38
2023-01-07T12:06:48.968Z,2.65
2023-01-07T12:09:28.082Z,7.85
2023-01-07T12:12:28.108Z,2.53
2023-01-07T12:14:55.817Z,2.25
2023-01-07T12:17:25.145Z,3.42
2023-01-07T12:20:03.831Z,1.85
2023-01-07T12:22:33.901Z,4.55
2023-01-07T12:25:19.991Z,1.92
2023-01-07T12:28:09.176Z,5.47
2023-01-07T12:30:38.892Z,2.20
2023-01-07T12:33:32.023Z,2.47
2023-01-07T12:36:08.634Z,2.88
2023-01-07T12:38:50.707Z,2.97
2023-01-07T12:41:29.181Z,1.95
2023-01-07T12:44:03.760Z,2.67
2023-01-07T12:46:41.831Z,3.20
2023-01-07T12:49:21.756Z,1.88
2023-01-07T12:52:03.017Z,3.22
2023-01-07T12:54:48.562Z,3.70
2023-01-07T12:57:37.025Z,2.88
2023-01-07T13:00:28.040Z,2.00
2023-01-07T13:03:16.503Z,3.65
2023-01-07T13:05:59.933Z,3.17
2023-01-07T13:08:41.874Z,2.53
2023-01-07T13:11:53.173Z,1.50
2023-01-07T13:14:32.942Z,3.65
2023-01-07T13:17:34.993Z,3.45
2023-01-07T13:20:04.601Z,6.30
2023-01-07T13:22:37.600Z,2.83
2023-01-07T13:25:04.757Z,2.03
2023-01-07T13:27:56.078Z,2.03
2023-01-07T13:30:44.155Z,5.70
2023-01-07T13:33:31.819Z,3.15
2023-01-07T13:36:27.686Z,2.75
2023-01-07T13:39:06.023Z,3.50
2023-01-07T13:41:56.442Z,3.53
2023-01-07T13:45:01.921Z,2.35
2023-01-07T13:47:50.582Z,3.35
2023-01-07T13:50:21.473Z,4.85
2023-01-07T13:53:00.674Z,5.45
2023-01-07T13:55:37.635Z,3.70
2023-01-07T13:58:44.008Z,2.35
2023-01-07T14:01:18.647Z,2.78
2023-01-07T14:03:51.641Z,2.70
2023-01-07T14:06:21.471Z,4.07
2023-01-07T14:08:55.019Z,2.95
2023-01-07T14:12:03.269Z,2.85
2023-01-07T14:14:50.966Z,4.57
2023-01-07T14:17:23.373Z,3.47
2023-01-07T14:20:24.551Z,5.40
2023-01-07T14:23:39.557Z,4.57
2023-01-07T14:26:44.013Z,3.78
2023-01-07T14:29:42.043Z,3.45
2023-01-07T14:32:27.971Z,5.85
2023-01-07T14:35:25.448Z,3.38
2023-01-07T14:37:52.440Z,3.08
2023-01-07T14:40:32.912Z,5.88
2023-01-07T14:43:01.471Z,2.97
2023-01-07T14:45:38.033Z,2.90
2023-01-07T14:48:10.964Z,3.72
2023-01-07T14:50:49.473Z,5.72
2023-01-07T14:53:16.244Z,4.97
2023-01-07T14:56:01.315Z,2.42
2023-01-07T14:58:47.508Z,4.38
2023-01-07T15:01:35.797Z,4.18
2023-01-07T15:04:37.038Z,4.05
2023-01-07T15:07:04.772Z,2.75
2023-01-07T15:10:01.541Z,6.30
2023-01-07T15:12:54.070Z,7.30
2023-01-07T15:15:48.213Z,3.50
2023-01-07T15:18:16.011Z,5.05
2023-01-07T15:20:57.902Z,3.90
2023-01-07T15:23:40.035Z,4.30
2023-01-07T15:26:29.939Z,3.75
2023-01-07T15:29:06.233Z,4.57
2023-01-07T15:31:40.232Z,5.85
2023-01-07T15:34:18.086Z,4.28
2023-01-07T15:36:52.407Z,5.80
2023-01-07T15:39:31.450Z,5.03
2023-01-07T15:41:59.520Z,6.25
2023-01-07T15:44:35.567Z,4.10
2023-01-07T15:47:02.938Z,7.40
2023-01-07T15:49:31.750Z,5.97
2023-01-07T15:52:02.142Z,4.97
2023-01-07T15:54:36.955Z,7.68
2023-01-07T15:57:22.784Z,3.53
2023-01-07T15:59:52.212Z,6.00
2023-01-07T16:02:19.193Z,6.57
2023-01-07T16:04:48.753Z,5.68
2023-01-07T16:07:41.848Z,5.38
2023-01-07T16:10:25.437Z,7.63
2023-01-07T16:13:01.394Z,8.02
2023-01-07T16:15:34.216Z,5.40
2023-01-07T16:18:03.316Z,5.38
2023-01-07T16:20:55.967Z,5.47
2023-01-07T16:23:28.642Z,9.98
2023-01-07T16:26:12.341Z,8.95
2023-01-07T16:29:01.601Z,7.00
2023-01-07T16:31:31.097Z,6.00
2023-01-07T16:34:02.330Z,9.25
2023-01-07T16:36:40.055Z,6.97
2023-01-07T16:39:20.887Z,7.30
2023-01-07T16:41:48.086Z,6.07
2023-01-07T16:44:53.802Z,4.13
2023-01-07T16:47:27.812Z,5.95
2023-01-07T16:50:15.099Z,7.93
2023-01-07T16:52:57.480Z,5.93
2023-01-07T16:55:45.673Z,6.00
2023-01-07T16:58:18.375Z,5.25
2023-01-07T17:00:50.943Z,7.30
2023-01-07T17:03:18.212Z,7.95
2023-01-07T17:06:02.270Z,7.40
2023-01-07T17:08:30.181Z,6.38
2023-01-07T17:11:04.685Z,8.57
2023-01-07T17:13:40.995Z,6.03
2023-01-07T17:16:22.593Z,8.60
2023-01-07T17:18:50.605Z,5.15
2023-01-07T17:21:37.149Z,6.18
2023-01-07T17:24:04.578Z,4.63
2023-01-07T17:26:41.061Z,8.50
2023-01-07T17:29:13.430Z,9.43
2023-01-07T17:31:40.868Z,11.20
2023-01-07T17:34:11.454Z,7.53
2023-01-07T17:36:38.903Z,9.88
2023-01-07T17:39:07.698Z,7.18
2023-01-07T17:41:55.739Z,12.07
2023-01-07T17:44:22.927Z,9.65
2023-01-07T17:46:59.558Z,10.25
2023-01-07T17:49:27.245Z,8.00
2023-01-07T17:51:54.953Z,11.50
2023-01-07T17:54:25.735Z,9.38
2023-01-07T17:56:52.925Z,8.65
2023-01-07T17:59:23.459Z,9.95
2023-01-07T18:01:52.998Z,10.02
2023-01-07T18:04:21.448Z,7.78
2023-01-07T18:06:50.055Z,9.93
2023-01-07T18:09:17.133Z,9.15
2023-01-07T18:12:05.090Z,9.02
2023-01-07T18:14:32.828Z,8.43
2023-01-07T18:16:59.852Z,7.18
2023-01-07T18:19:26.958Z,8.15
2023-01-07T18:21:54.062Z,7.85
2023-01-07T18:24:21.644Z,7.28
2023-01-07T18:26:48.854Z,7.20
2023-01-07T18:29:15.711Z,11.75
2023-01-07T18:31:44.730Z,9.98
2023-01-07T18:34:13.794Z,9.32
2023-01-07T18:36:40.920Z,8.73
2023-01-07T18:39:10.909Z,9.50
2023-01-07T18:41:42.205Z,7.85
2023-01-07T18:44:09.175Z,6.55
2023-01-07T18:46:35.984Z,7.72
2023-01-07T18:49:02.922Z,6.07
2023-01-07T18:51:29.775Z,8.05
2023-01-07T18:53:56.582Z,5.25
2023-01-07T18:56:23.434Z,8.60
2023-01-07T18:58:54.394Z,7.43
2023-01-07T19:01:21.520Z,9.10
2023-01-07T19:03:49.141Z,7.13
2023-01-07T19:06:16.174Z,7.55
2023-01-07T19:08:43.060Z,8.77
2023-01-07T19:11:11.959Z,10.30
2023-01-07T19:13:39.230Z,8.70
2023-01-07T19:16:11.153Z,6.90
2023-01-07T19:18:38.676Z,7.13
2023-01-07T19:21:07.748Z,8.50
2023-01-07T19:23:34.922Z,12.95
2023-01-07T19:26:04.436Z,8.10
2023-01-07T19:28:34.825Z,6.90
2023-01-07T19:31:08.283Z,9.10
2023-01-07T19:33:35.615Z,9.35
2023-01-07T19:36:10.477Z,9.77
2023-01-07T19:38:42.835Z,7.10
2023-01-07T19:41:12.367Z,7.32
2023-01-07T19:43:39.280Z,12.38
2023-01-07T19:46:07.512Z,8.18
2023-01-07T19:48:34.568Z,11.00
2023-01-07T19:51:03.174Z,11.05
2023-01-07T19:53:31.506Z,9.55
2023-01-07T19:56:03.360Z,8.45
2023-01-07T19:58:30.588Z,12.57
2023-01-07T20:01:09.178Z,10.43
2023-01-07T20:03:37.575Z,12.25
2023-01-07T20:06:07.001Z,9.15
2023-01-07T20:08:34.348Z,10.90
2023-01-07T20:11:01.814Z,7.15
2023-01-07T20:13:30.773Z,9.25
2023-01-07T20:16:06.413Z,8.88
2023-01-07T20:18:38.196Z,10.55
2023-01-07T20:21:05.562Z,7.95
2023-01-07T20:23:35.784Z,14.73
2023-01-07T20:26:06.104Z,10.13
2023-01-07T20:28:34.172Z,11.30
2023-01-07T20:31:04.343Z,9.52
2023-01-07T20:33:31.559Z,8.13
2023-01-07T20:36:03.795Z,9.75
2023-01-07T20:38:33.640Z,7.97
2023-01-07T20:41:02.501Z,9.40
2023-01-07T20:43:32.035Z,10.55
2023-01-07T20:46:01.120Z,10.20
2023-01-07T20:48:29.209Z,15.90
2023-01-07T20:50:56.268Z,13.35
2023-01-07T20:53:23.676Z,7.95
2023-01-07T20:56:00.297Z,12.27
2023-01-07T20:58:29.911Z,11.70
2023-01-07T21:00:57.078Z,9.07
2023-01-07T21:03:24.101Z,9.85
2023-01-07T21:05:56.713Z,14.40
2023-01-07T21:08:24.287Z,11.57
2023-01-07T21:10:51.772Z,8.75
2023-01-07T21:13:21.952Z,8.77
2023-01-07T21:15:48.973Z,7.20
2023-01-07T21:18:18.804Z,7.43
2023-01-07T21:20:48.116Z,10.30
2023-01-07T21:23:15.282Z,13.70
2023-01-07T21:25:47.184Z,9.38
2023-01-07T21:28:14.442Z,8.57
2023-01-07T21:30:41.961Z,10.68
2023-01-07T21:33:08.969Z,6.32
2023-01-07T21:35:39.346Z,6.72
2023-01-07T21:38:06.189Z,9.35
2023-01-07T21:40:32.981Z,8.00
2023-01-07T21:42:59.926Z,7.28
2023-01-07T21:45:26.716Z,6.25
2023-01-07T21:47:53.587Z,7.38
2023-01-07T21:50:20.595Z,7.18
2023-01-07T21:52:47.447Z,6.93
2023-01-07T21:55:14.427Z,8.10
2023-01-07T21:57:41.781Z,8.55
2023-01-07T22:00:09.118Z,5.72
2023-01-07T22:02:35.959Z,7.25
2023-01-07T22:05:02.789Z,8.30
2023-01-07T22:07:29.750Z,8.10
2023-01-07T22:09:56.738Z,6.50
2023-01-07T22:12:25.750Z,8.43
2023-01-07T22:14:52.567Z,8.20
2023-01-07T22:17:20.059Z,6.85
2023-01-07T22:19:47.104Z,11.02
2023-01-07T22:22:16.603Z,8.05
2023-01-07T22:24:43.432Z,10.80
2023-01-07T22:27:10.335Z,5.40
2023-01-07T22:29:37.602Z,8.48
2023-01-07T22:32:04.631Z,5.00
2023-01-07T22:34:32.279Z,4.63
2023-01-07T22:37:15.389Z,11.73
2023-01-07T22:39:47.250Z,5.95
2023-01-07T22:42:28.741Z,9.18
2023-01-07T22:45:10.644Z,9.13
2023-01-07T22:47:41.475Z,10.13
2023-01-07T22:50:09.607Z,6.70
2023-01-07T22:52:38.041Z,9.20
2023-01-07T22:55:05.609Z,12.55
2023-01-07T22:57:34.410Z,6.07
2023-01-07T23:00:01.371Z,7.38
2023-01-07T23:02:33.849Z,10.90
2023-01-07T23:05:01.174Z,7.88
2023-01-07T23:07:29.906Z,8.57
2023-01-07T23:09:56.872Z,8.82
2023-01-07T23:12:23.996Z,9.85
2023-01-07T23:14:50.912Z,10.18
2023-01-07T23:17:17.900Z,9.32
2023-01-07T23:19:44.952Z,5.13
2023-01-07T23:22:11.724Z,7.57
2023-01-07T23:24:38.555Z,5.80
2023-01-07T23:27:05.387Z,4.75
2023-01-07T23:29:32.549Z,8.60
2023-01-07T23:32:01.325Z,4.72
2023-01-07T23:34:28.288Z,6.45
2023-01-07T23:36:55.103Z,5.93
2023-01-07T23:39:21.929Z,5.07
2023-01-07T23:41:48.912Z,6.65
2023-01-07T23:44:17.417Z,6.25
2023-01-07T23:46:44.385Z,7.05
2023-01-07T23:49:11.206Z,6.40
2023-01-07T23:51:39.463Z,9.82
2023-01-07T23:54:06.495Z,4.25
2023-01-07T23:56:33.267Z,3.72
2023-01-07T23:59:02.814Z,5.10
